METAR rapporten vliegvelden

   
EHVK - Volkel Rnlafb, Netherlands
Afstand tot: ZW 18 km
Gewijzigd: 22-07-2019 18:55
Bewolking  
Bewolking  
   Wind: Westen 13 km/h
Wind: Westen 13 km/h
Temperatuur: 28°C
Gevoelstemperatuur: 28°C
Dauwpunt: 14°C
Vochtigheid: 42%
Barometer: 1021 hPa
Bewolking: Bewolking
Zicht: meer dan 10 km
Bewolking: Bewolking 41000 ft
EHVK 221655Z AUTO 27007KT 220V340 9999 OVC410 28/14 Q1021 BLU
EDLV - Niederrhein, Germany
Afstand tot: ZO 25 km
Gewijzigd: 22-07-2019 18:50
Helder  
Helder  
   Wind: Westen 14.8 km/h
Wind: Westen 14.8 km/h
Temperatuur: 29°C
Gevoelstemperatuur: 29°C
Dauwpunt: 15°C
Vochtigheid: 43%
Barometer: 1022 hPa
Zicht: meer dan 10 km
Bewolking: Helder
EDLV 221650Z 27008KT 240V310 CAVOK 29/15 Q1022
EHDL - Deelen Rnlafb, Netherlands
Afstand tot: N 35 km
Gewijzigd: 22-07-2019 18:55
Gedeeltelijk bewolkt  
Gedeeltelijk bewolkt  
   Wind: Westen 14.8 km/h
Wind: Westen 14.8 km/h
Temperatuur: 26°C
Dauwpunt: 15°C
Vochtigheid: 51%
Barometer: 1022 hPa
Bewolking: Gedeeltelijk bewolkt
Zicht: meer dan 10 km
Bewolking: Gedeeltelijk bewolkt 39000 ft
EHDL 221655Z AUTO 26008KT 160V290 9999 SCT390 26/15 Q1022 BLU
EHEH - Eindhoven Rnlafb, Netherlands
Afstand tot: ZW 48 km
Gewijzigd: 22-07-2019 18:55
Bewolking  
Bewolking  
   Wind: ZW 14.8 km/h
Wind: ZW 14.8 km/h
Temperatuur: 29°C
Dauwpunt: 13°C
Vochtigheid: 37%
Barometer: 1021 hPa
Bewolking: Bewolking
Zicht: meer dan 10 km
Bewolking: Bewolking 37000 ft
EHEH 221655Z AUTO 22008KT 190V320 9999 OVC370 29/13 Q1021 BLU 24010KT CAVOK
EHGR - Gilze-Rijen Rnla, Netherlands
Afstand tot: WZW 70 km
Gewijzigd: 22-07-2019 18:55
Grotendeels bewolkt  
Grotendeels bewolkt  
   Wind: Westen 11.1 km/h
Wind: Westen 11.1 km/h
Temperatuur: 28°C
Gevoelstemperatuur: 28°C
Dauwpunt: 15°C
Vochtigheid: 45%
Barometer: 1021 hPa
Bewolking: Grotendeels bewolkt
Zicht: meer dan 10 km
Bewolking: Grotendeels bewolkt 42000 ft
EHGR 221655Z AUTO 27006KT 230V310 9999 BKN420 28/15 Q1021 BLU
EBBL - Kleine-Brogel(Ba, Belgium
Afstand tot: ZZW 71 km
Gewijzigd: 22-07-2019 18:25
Helder  
Helder  
   Wind: Westen 9.3 km/h
Wind: Westen 9.3 km/h
Temperatuur: 29°C
Dauwpunt: 13°C
Vochtigheid: 37%
Barometer: 1022 hPa
Bewolking: Helder
Zicht: meer dan 10 km
Bewolking: Helder
EBBL 221625Z AUTO 28005KT 9999 NCD 29/13 Q1022 BLU

Script ontwikkeld door  Saratoga-weather.org Aangepast voor de template door  Weerstation Leuven

U vindt ons ook hier:

Het Weer Aktueel

European Weather Network

WeatherCloud

Weather Underground

Benelux Weer Netwerk

Apparatuur in gebruik:

Weerstation
Davis VP2

Weerprogramma
consoleWD

Weercomputer
Raspberry

Webleverancier
Stef van Bakel koeltechniek

Davis VP2

consoleWD

Raspberry

Stef van Bakel koeltechniek